CheckWX is a tool to help pilots better visualize weather data.  It is not intended as a substitute for an official pre-flight weather briefing.

08:15:49 UTC

KCRP METAR
Corpus Christi International Airport
Corpus Christi, Texas, USA
Current

25 mins ago

KCRP 220751Z 01010KT 5SM BR OVC004 14/12 A2991 RMK AO2 SLP127 T01390122
Observed
Feb-22 @ 07:51 UTC
Wind
  • 010° at 10 KTS
Visibility
5 SM
Flight Rules
LIFR
Conditions
Mist
Cloud Levels
  • Overcast at 400' AGL
Temperature
14°C / 57°F
Dewpoint
12°C / 54°F
Humidity
88%
Altimeter
29.91" Hg
Pressure
1012.7 hPa
Previous

1 hour ago

KCRP 220651Z 02008KT 4SM BR OVC003 14/12 A2990 RMK AO2 SLP124 T01390122
Observed
Feb-22 @ 06:51 UTC
Wind
  • 020° at 8 KTS
Visibility
4 SM
Flight Rules
LIFR
Conditions
Mist
Cloud Levels
  • Overcast at 300' AGL
Temperature
14°C / 57°F
Dewpoint
12°C / 54°F
Humidity
88%
Altimeter
29.9" Hg
Pressure
1012.4 hPa
Previous

2 hours ago

KCRP 220551Z 04008KT 6SM BR OVC004 14/13 A2990 RMK AO2 SLP125 T01440128 10161 20144 401830144 50008
Observed
Feb-22 @ 05:51 UTC
Wind
  • 040° at 8 KTS
Visibility
6 SM
Flight Rules
LIFR
Conditions
Mist
Cloud Levels
  • Overcast at 400' AGL
Temperature
14°C / 57°F
Dewpoint
13°C / 55°F
Humidity
94%
Altimeter
29.9" Hg
Pressure
1012.5 hPa